createdAt,value
2023-01-07T00:01:40.236Z,101198.84
2023-01-07T00:04:12.389Z,101176.16
2023-01-07T00:06:41.480Z,101174.25
2023-01-07T00:09:17.525Z,101166.28
2023-01-07T00:11:45.467Z,101170.19
2023-01-07T00:14:14.252Z,101171.47
2023-01-07T00:16:42.364Z,101174.69
2023-01-07T00:19:13.625Z,101169.72
2023-01-07T00:21:40.793Z,101166.53
2023-01-07T00:24:07.775Z,101174.25
2023-01-07T00:26:37.016Z,101169.66
2023-01-07T00:29:05.214Z,101181.03
2023-01-07T00:31:38.183Z,101175.25
2023-01-07T00:34:05.844Z,101179.28
2023-01-07T00:36:41.084Z,101167.72
2023-01-07T00:39:15.778Z,101168.44
2023-01-07T00:42:02.340Z,101164.81
2023-01-07T00:44:34.471Z,101171.44
2023-01-07T00:47:05.397Z,101172.78
2023-01-07T00:49:35.911Z,101169.38
2023-01-07T00:52:03.099Z,101172.38
2023-01-07T00:54:30.044Z,101165.16
2023-01-07T00:56:57.126Z,101166.13
2023-01-07T00:59:24.095Z,101164.44
2023-01-07T01:01:51.318Z,101163.81
2023-01-07T01:04:18.165Z,101160.22
2023-01-07T01:06:44.834Z,101163.44
2023-01-07T01:09:12.856Z,101150.00
2023-01-07T01:11:41.943Z,101172.88
2023-01-07T01:14:11.278Z,101164.72
2023-01-07T01:16:38.273Z,101151.03
2023-01-07T01:19:05.562Z,101151.16
2023-01-07T01:21:32.484Z,101144.38
2023-01-07T01:23:59.185Z,101149.78
2023-01-07T01:26:25.867Z,101143.84
2023-01-07T01:28:52.821Z,101140.88
2023-01-07T01:31:27.078Z,101143.94
2023-01-07T01:33:55.805Z,101141.94
2023-01-07T01:36:24.657Z,101139.28
2023-01-07T01:38:53.391Z,101139.63
2023-01-07T01:41:24.137Z,101123.88
2023-01-07T01:43:53.049Z,101125.00
2023-01-07T01:46:19.877Z,101130.94
2023-01-07T01:48:53.073Z,101135.47
2023-01-07T01:51:23.559Z,101130.38
2023-01-07T01:53:52.203Z,101130.38
2023-01-07T01:56:27.867Z,101130.44
2023-01-07T01:59:03.178Z,101133.09
2023-01-07T02:01:34.543Z,101136.06
2023-01-07T02:04:11.780Z,101128.53
2023-01-07T02:06:45.202Z,101120.44
2023-01-07T02:09:15.479Z,101126.06
2023-01-07T02:12:10.686Z,101126.50
2023-01-07T02:14:58.559Z,101127.13
2023-01-07T02:17:28.582Z,101121.66
2023-01-07T02:20:02.973Z,101120.03
2023-01-07T02:22:48.846Z,101113.47
2023-01-07T02:25:43.895Z,101112.25
2023-01-07T02:28:28.927Z,101106.19
2023-01-07T02:31:24.427Z,101108.06
2023-01-07T02:33:54.186Z,101110.47
2023-01-07T02:36:51.497Z,101104.53
2023-01-07T02:39:47.936Z,101102.88
2023-01-07T02:42:31.129Z,101093.84
2023-01-07T02:45:21.095Z,101081.72
2023-01-07T02:47:54.762Z,101081.75
2023-01-07T02:50:21.993Z,101075.06
2023-01-07T02:52:50.252Z,101070.75
2023-01-07T02:55:39.800Z,101066.66
2023-01-07T02:58:31.419Z,101068.94
2023-01-07T03:01:26.038Z,101063.66
2023-01-07T03:04:16.304Z,101066.75
2023-01-07T03:06:54.893Z,101062.78
2023-01-07T03:10:07.405Z,101065.16
2023-01-07T03:12:41.951Z,101064.63
2023-01-07T03:15:20.891Z,101054.91
2023-01-07T03:17:53.954Z,101056.28
2023-01-07T03:20:26.376Z,101059.09
2023-01-07T03:22:53.798Z,101047.16
2023-01-07T03:25:22.483Z,101040.75
2023-01-07T03:27:53.754Z,101039.94
2023-01-07T03:30:22.833Z,101035.53
2023-01-07T03:33:02.645Z,101035.75
2023-01-07T03:35:36.289Z,101043.72
2023-01-07T03:38:04.505Z,101050.19
2023-01-07T03:40:32.511Z,101047.81
2023-01-07T03:42:59.801Z,101054.22
2023-01-07T03:45:28.613Z,101048.81
2023-01-07T03:47:58.488Z,101048.53
2023-01-07T03:50:31.459Z,101046.25
2023-01-07T03:52:58.155Z,101042.88
2023-01-07T03:55:25.710Z,101039.78
2023-01-07T03:57:58.321Z,101045.16
2023-01-07T04:00:28.789Z,101039.38
2023-01-07T04:03:02.877Z,101036.72
2023-01-07T04:05:37.192Z,101034.44
2023-01-07T04:08:04.793Z,101030.66
2023-01-07T04:10:35.733Z,101025.13
2023-01-07T04:13:02.812Z,101025.72
2023-01-07T04:15:31.412Z,101016.69
2023-01-07T04:17:58.186Z,101017.34
2023-01-07T04:20:26.086Z,101005.78
2023-01-07T04:22:53.960Z,101010.72
2023-01-07T04:25:23.942Z,101008.16
2023-01-07T04:27:51.521Z,101002.16
2023-01-07T04:30:18.179Z,101016.25
2023-01-07T04:32:52.754Z,101005.56
2023-01-07T04:35:21.185Z,101011.13
2023-01-07T04:37:47.981Z,101000.00
2023-01-07T04:40:14.806Z,100996.47
2023-01-07T04:42:44.959Z,100994.50
2023-01-07T04:45:12.339Z,100993.38
2023-01-07T04:47:40.211Z,100985.81
2023-01-07T04:50:08.207Z,100984.66
2023-01-07T04:52:36.727Z,100980.81
2023-01-07T04:55:07.955Z,100984.47
2023-01-07T04:57:34.756Z,100985.75
2023-01-07T05:00:02.073Z,100981.06
2023-01-07T05:02:30.778Z,100975.84
2023-01-07T05:05:00.174Z,100975.84
2023-01-07T05:07:27.418Z,100978.88
2023-01-07T05:09:54.578Z,100988.47
2023-01-07T05:12:25.028Z,100994.66
2023-01-07T05:14:53.383Z,100982.63
2023-01-07T05:17:20.578Z,100995.41
2023-01-07T05:19:47.402Z,100993.41
2023-01-07T05:22:15.460Z,100994.31
2023-01-07T05:24:42.544Z,100997.06
2023-01-07T05:27:12.040Z,100985.81
2023-01-07T05:29:42.847Z,100988.31
2023-01-07T05:32:11.867Z,100983.50
2023-01-07T05:34:41.686Z,100980.06
2023-01-07T05:37:08.884Z,100980.03
2023-01-07T05:39:36.664Z,100979.78
2023-01-07T05:42:10.033Z,100980.75
2023-01-07T05:44:36.932Z,100976.53
2023-01-07T05:47:06.537Z,100985.25
2023-01-07T05:49:33.084Z,100978.09
2023-01-07T05:52:00.149Z,100982.94
2023-01-07T05:54:27.073Z,100978.72
2023-01-07T05:56:53.775Z,100973.47
2023-01-07T05:59:20.336Z,100981.00
2023-01-07T06:01:47.295Z,100980.59
2023-01-07T06:04:14.185Z,100984.78
2023-01-07T06:06:40.834Z,100981.47
2023-01-07T06:09:07.394Z,100982.41
2023-01-07T06:11:34.069Z,100986.19
2023-01-07T06:14:03.186Z,100983.31
2023-01-07T06:16:30.312Z,100989.78
2023-01-07T06:18:57.755Z,100989.91
2023-01-07T06:21:29.068Z,100985.13
2023-01-07T06:23:56.309Z,100991.72
2023-01-07T06:26:23.103Z,100988.41
2023-01-07T06:28:53.484Z,100989.47
2023-01-07T06:31:24.719Z,100994.22
2023-01-07T06:33:51.671Z,100986.78
2023-01-07T06:36:18.544Z,100985.69
2023-01-07T06:38:48.485Z,100978.94
2023-01-07T06:41:15.481Z,100985.38
2023-01-07T06:43:42.680Z,100984.72
2023-01-07T06:46:09.499Z,100982.13
2023-01-07T06:48:38.678Z,100979.84
2023-01-07T06:51:06.147Z,100988.06
2023-01-07T06:53:33.308Z,100981.13
2023-01-07T06:56:03.124Z,100982.91
2023-01-07T06:58:30.322Z,100985.00
2023-01-07T07:00:57.573Z,100986.34
2023-01-07T07:03:24.450Z,100980.72
2023-01-07T07:05:51.698Z,100987.50
2023-01-07T07:08:18.403Z,100991.44
2023-01-07T07:10:45.208Z,100987.00
2023-01-07T07:13:12.130Z,100977.97
2023-01-07T07:15:45.428Z,100978.22
2023-01-07T07:18:13.642Z,100988.28
2023-01-07T07:20:46.243Z,100982.81
2023-01-07T07:23:13.455Z,100982.22
2023-01-07T07:25:40.850Z,100977.47
2023-01-07T07:28:08.344Z,100988.66
2023-01-07T07:30:47.277Z,100989.38
2023-01-07T07:33:15.748Z,100985.69
2023-01-07T07:35:43.698Z,100986.94
2023-01-07T07:38:11.976Z,100976.59
2023-01-07T07:40:38.938Z,100985.47
2023-01-07T07:43:11.383Z,100976.75
2023-01-07T07:45:45.653Z,100979.75
2023-01-07T07:48:14.910Z,100983.41
2023-01-07T07:50:42.307Z,100984.19
2023-01-07T07:53:11.106Z,100977.91
2023-01-07T07:55:39.204Z,100982.09
2023-01-07T07:58:08.261Z,100977.44
2023-01-07T08:00:35.297Z,100979.94
2023-01-07T08:03:02.462Z,100978.66
2023-01-07T08:05:31.583Z,100970.75
2023-01-07T08:07:59.782Z,100968.72
2023-01-07T08:10:31.414Z,100975.00
2023-01-07T08:13:01.798Z,100968.00
2023-01-07T08:15:29.717Z,100966.38
2023-01-07T08:18:00.504Z,100964.78
2023-01-07T08:20:32.381Z,100961.38
2023-01-07T08:23:00.706Z,100967.34
2023-01-07T08:25:29.653Z,100955.91
2023-01-07T08:28:01.223Z,100952.59
2023-01-07T08:30:28.968Z,100952.88
2023-01-07T08:32:56.592Z,100952.31
2023-01-07T08:35:23.367Z,100956.63
2023-01-07T08:37:54.590Z,100956.50
2023-01-07T08:40:23.272Z,100948.03
2023-01-07T08:42:50.451Z,100954.63
2023-01-07T08:45:18.682Z,100956.41
2023-01-07T08:47:48.836Z,100951.03
2023-01-07T08:50:20.682Z,100943.31
2023-01-07T08:52:48.182Z,100936.69
2023-01-07T08:55:17.634Z,100940.50
2023-01-07T08:57:47.153Z,100940.38
2023-01-07T09:00:23.603Z,100940.06
2023-01-07T09:02:50.558Z,100950.91
2023-01-07T09:05:17.961Z,100939.53
2023-01-07T09:07:44.854Z,100942.91
2023-01-07T09:10:12.344Z,100936.34
2023-01-07T09:12:39.582Z,100928.06
2023-01-07T09:15:11.163Z,100924.19
2023-01-07T09:17:40.721Z,100929.75
2023-01-07T09:20:08.111Z,100932.31
2023-01-07T09:22:36.765Z,100931.78
2023-01-07T09:25:05.424Z,100930.94
2023-01-07T09:27:38.355Z,100940.69
2023-01-07T09:30:09.298Z,100935.97
2023-01-07T09:32:37.939Z,100936.97
2023-01-07T09:35:06.330Z,100934.53
2023-01-07T09:37:33.075Z,100932.88
2023-01-07T09:40:04.992Z,100936.34
2023-01-07T09:42:33.905Z,100938.81
2023-01-07T09:45:11.887Z,100943.78
2023-01-07T09:47:43.653Z,100935.44
2023-01-07T09:50:26.910Z,100926.22
2023-01-07T09:53:00.741Z,100928.06
2023-01-07T09:55:36.668Z,100927.13
2023-01-07T09:58:03.902Z,100923.66
2023-01-07T10:00:36.551Z,100914.63
2023-01-07T10:03:28.487Z,100920.00
2023-01-07T10:06:09.961Z,100921.34
2023-01-07T10:08:44.772Z,100920.47
2023-01-07T10:11:48.631Z,100911.63
2023-01-07T10:14:43.414Z,100917.56
2023-01-07T10:17:22.274Z,100905.47
2023-01-07T10:20:07.862Z,100903.56
2023-01-07T10:22:52.324Z,100907.13
2023-01-07T10:25:25.977Z,100907.66
2023-01-07T10:27:59.019Z,100904.75
2023-01-07T10:30:34.378Z,100892.38
2023-01-07T10:33:27.068Z,100904.25
2023-01-07T10:36:19.708Z,100904.16
2023-01-07T10:39:10.917Z,100896.75
2023-01-07T10:42:10.275Z,100896.91
2023-01-07T10:44:55.061Z,100887.50
2023-01-07T10:48:03.799Z,100889.84
2023-01-07T10:50:55.754Z,100880.50
2023-01-07T10:54:04.630Z,100875.19
2023-01-07T10:56:41.509Z,100875.59
2023-01-07T10:59:15.595Z,100864.56
2023-01-07T11:01:45.850Z,100869.19
2023-01-07T11:04:18.662Z,100863.97
2023-01-07T11:06:55.994Z,100867.97
2023-01-07T11:09:30.779Z,100860.44
2023-01-07T11:12:04.232Z,100853.47
2023-01-07T11:14:36.081Z,100850.59
2023-01-07T11:17:36.125Z,100857.75
2023-01-07T11:20:06.008Z,100842.81
2023-01-07T11:22:36.667Z,100847.16
2023-01-07T11:25:27.023Z,100842.38
2023-01-07T11:27:56.825Z,100839.81
2023-01-07T11:30:29.678Z,100828.41
2023-01-07T11:33:03.775Z,100830.78
2023-01-07T11:35:31.134Z,100831.63
2023-01-07T11:37:59.398Z,100835.13
2023-01-07T11:40:29.027Z,100827.28
2023-01-07T11:43:01.311Z,100823.38
2023-01-07T11:45:35.290Z,100822.38
2023-01-07T11:48:06.805Z,100824.19
2023-01-07T11:50:54.827Z,100811.72
2023-01-07T11:53:57.014Z,100811.38
2023-01-07T11:56:34.153Z,100805.50
2023-01-07T11:59:24.257Z,100804.41
2023-01-07T12:01:54.350Z,100816.47
2023-01-07T12:04:30.111Z,100802.75
2023-01-07T12:07:01.665Z,100795.97
2023-01-07T12:09:33.753Z,100801.81
2023-01-07T12:12:34.432Z,100800.66
2023-01-07T12:15:08.890Z,100793.78
2023-01-07T12:17:43.596Z,100788.78
2023-01-07T12:20:38.596Z,100797.63
2023-01-07T12:23:32.191Z,100787.97
2023-01-07T12:26:17.476Z,100771.38
2023-01-07T12:29:23.859Z,100782.91
2023-01-07T12:32:38.872Z,100772.03
2023-01-07T12:35:25.210Z,100766.22
2023-01-07T12:38:28.106Z,100771.84
2023-01-07T12:41:00.259Z,100762.31
2023-01-07T12:43:52.581Z,100754.94
2023-01-07T12:46:26.462Z,100762.47
2023-01-07T12:49:05.111Z,100748.28
2023-01-07T12:51:46.115Z,100751.06
2023-01-07T12:54:39.423Z,100741.81
2023-01-07T12:57:17.537Z,100740.59
2023-01-07T12:59:57.803Z,100743.66
2023-01-07T13:02:49.788Z,100732.50
2023-01-07T13:05:16.604Z,100731.94
2023-01-07T13:08:04.089Z,100727.97
2023-01-07T13:10:38.379Z,100731.06
2023-01-07T13:13:15.015Z,100726.38
2023-01-07T13:15:42.052Z,100728.19
2023-01-07T13:18:12.231Z,100718.22
2023-01-07T13:20:51.699Z,100721.66
2023-01-07T13:23:36.658Z,100718.75
2023-01-07T13:26:23.598Z,100718.25
2023-01-07T13:29:16.185Z,100710.53
2023-01-07T13:32:27.896Z,100720.75
2023-01-07T13:35:24.783Z,100713.19
2023-01-07T13:37:53.552Z,100710.22
2023-01-07T13:40:48.328Z,100703.84
2023-01-07T13:43:33.922Z,100700.25
2023-01-07T13:46:11.489Z,100698.09
2023-01-07T13:48:40.912Z,100690.38
2023-01-07T13:51:10.387Z,100684.06
2023-01-07T13:53:39.574Z,100691.94
2023-01-07T13:56:21.525Z,100692.13
2023-01-07T13:58:58.330Z,100686.22
2023-01-07T14:01:35.375Z,100687.34
2023-01-07T14:04:08.261Z,100681.03
2023-01-07T14:06:50.671Z,100664.50
2023-01-07T14:09:26.497Z,100667.41
2023-01-07T14:11:59.749Z,100671.59
2023-01-07T14:14:55.227Z,100662.19
2023-01-07T14:17:51.844Z,100659.31
2023-01-07T14:20:34.412Z,100659.16
2023-01-07T14:23:26.003Z,100666.25
2023-01-07T14:26:17.424Z,100662.56
2023-01-07T14:29:26.773Z,100660.72
2023-01-07T14:32:32.649Z,100652.22
2023-01-07T14:35:08.148Z,100656.19
2023-01-07T14:37:47.253Z,100649.69
2023-01-07T14:40:26.103Z,100637.88
2023-01-07T14:42:54.819Z,100634.16
2023-01-07T14:45:36.996Z,100638.56
2023-01-07T14:48:09.975Z,100634.00
2023-01-07T14:50:54.253Z,100631.50
2023-01-07T14:53:50.070Z,100636.06
2023-01-07T14:56:19.829Z,100621.84
2023-01-07T14:59:14.261Z,100626.28
2023-01-07T15:02:14.931Z,100619.22
2023-01-07T15:05:00.426Z,100608.75
2023-01-07T15:07:36.691Z,100600.81
2023-01-07T15:10:37.869Z,100599.91
2023-01-07T15:13:32.780Z,100597.91
2023-01-07T15:16:01.470Z,100598.81
2023-01-07T15:18:33.002Z,100582.56
2023-01-07T15:21:23.656Z,100589.31
2023-01-07T15:24:17.900Z,100590.13
2023-01-07T15:27:09.616Z,100579.16
2023-01-07T15:29:54.698Z,100572.56
2023-01-07T15:33:00.171Z,100576.03
2023-01-07T15:35:33.754Z,100558.75
2023-01-07T15:38:05.960Z,100559.94
2023-01-07T15:40:32.618Z,100562.72
2023-01-07T15:42:59.703Z,100563.50
2023-01-07T15:45:28.540Z,100552.47
2023-01-07T15:48:07.860Z,100547.84
2023-01-07T15:50:39.585Z,100559.00
2023-01-07T15:53:15.086Z,100552.44
2023-01-07T15:55:50.116Z,100541.28
2023-01-07T15:58:19.038Z,100539.22
2023-01-07T16:00:50.952Z,100535.66
2023-01-07T16:03:19.809Z,100526.56
2023-01-07T16:05:47.310Z,100529.25
2023-01-07T16:08:24.641Z,100525.91
2023-01-07T16:11:11.414Z,100517.78
2023-01-07T16:13:38.795Z,100512.75
2023-01-07T16:16:06.802Z,100513.53
2023-01-07T16:18:36.175Z,100503.47
2023-01-07T16:21:06.993Z,100507.06
2023-01-07T16:23:35.839Z,100502.69
2023-01-07T16:26:07.398Z,100501.53
2023-01-07T16:28:42.960Z,100495.97
2023-01-07T16:31:13.544Z,100492.50
2023-01-07T16:33:41.968Z,100486.44
2023-01-07T16:36:17.739Z,100492.34
2023-01-07T16:38:54.620Z,100486.34
2023-01-07T16:41:24.604Z,100480.88
2023-01-07T16:43:58.033Z,100486.22
2023-01-07T16:47:05.575Z,100481.19
2023-01-07T16:49:36.747Z,100476.69
2023-01-07T16:52:14.642Z,100475.66
2023-01-07T16:54:52.215Z,100466.72
2023-01-07T16:57:30.012Z,100471.94
2023-01-07T17:00:00.607Z,100466.47
2023-01-07T17:02:42.098Z,100470.63
2023-01-07T17:05:29.923Z,100454.03
2023-01-07T17:08:00.667Z,100448.81
2023-01-07T17:10:29.352Z,100448.84
2023-01-07T17:13:17.021Z,100448.03
2023-01-07T17:15:44.521Z,100456.78
2023-01-07T17:18:11.339Z,100452.00
2023-01-07T17:20:50.307Z,100447.16
2023-01-07T17:23:30.574Z,100443.19
2023-01-07T17:26:12.366Z,100434.50
2023-01-07T17:28:52.880Z,100440.09
2023-01-07T17:31:21.498Z,100437.91
2023-01-07T17:33:48.860Z,100433.94
2023-01-07T17:36:20.503Z,100433.31
2023-01-07T17:38:50.601Z,100434.75
2023-01-07T17:41:41.171Z,100424.97
2023-01-07T17:44:12.705Z,100412.03
2023-01-07T17:46:45.314Z,100415.66
2023-01-07T17:49:12.299Z,100407.91
2023-01-07T17:51:47.439Z,100401.47
2023-01-07T17:54:20.026Z,100405.19
2023-01-07T17:56:46.906Z,100408.06
2023-01-07T17:59:23.752Z,100399.44
2023-01-07T18:01:53.556Z,100408.03
2023-01-07T18:04:21.600Z,100405.69
2023-01-07T18:06:48.459Z,100398.44
2023-01-07T18:09:21.160Z,100399.88
2023-01-07T18:12:06.640Z,100402.16
2023-01-07T18:14:33.323Z,100395.03
2023-01-07T18:17:02.843Z,100400.09
2023-01-07T18:19:30.161Z,100399.69
2023-01-07T18:22:01.454Z,100381.69
2023-01-07T18:24:28.208Z,100365.31
2023-01-07T18:26:57.871Z,100362.13
2023-01-07T18:29:25.204Z,100361.97
2023-01-07T18:31:52.646Z,100366.97
2023-01-07T18:34:24.231Z,100372.16
2023-01-07T18:36:51.341Z,100366.81
2023-01-07T18:39:23.415Z,100370.53
2023-01-07T18:41:54.688Z,100361.69
2023-01-07T18:44:24.446Z,100374.06
2023-01-07T18:46:51.108Z,100379.31
2023-01-07T18:49:18.627Z,100371.47
2023-01-07T18:51:47.329Z,100375.25
2023-01-07T18:54:16.518Z,100370.53
2023-01-07T18:56:45.868Z,100377.53
2023-01-07T18:59:13.985Z,100378.47
2023-01-07T19:01:41.174Z,100383.53
2023-01-07T19:04:08.396Z,100366.97
2023-01-07T19:06:35.197Z,100371.81
2023-01-07T19:09:01.991Z,100373.59
2023-01-07T19:11:31.620Z,100369.81
2023-01-07T19:14:03.072Z,100370.13
2023-01-07T19:16:29.987Z,100359.66
2023-01-07T19:18:59.046Z,100362.50
2023-01-07T19:21:26.704Z,100353.25
2023-01-07T19:23:53.800Z,100342.34
2023-01-07T19:26:22.197Z,100345.50
2023-01-07T19:28:49.320Z,100342.56
2023-01-07T19:31:16.343Z,100348.41
2023-01-07T19:33:45.695Z,100350.69
2023-01-07T19:36:15.031Z,100339.16
2023-01-07T19:38:47.843Z,100335.94
2023-01-07T19:41:19.795Z,100333.63
2023-01-07T19:43:47.745Z,100338.09
2023-01-07T19:46:16.135Z,100332.09
2023-01-07T19:48:49.764Z,100327.78
2023-01-07T19:51:16.743Z,100329.28
2023-01-07T19:53:44.147Z,100333.91
2023-01-07T19:56:14.108Z,100319.28
2023-01-07T19:58:42.221Z,100308.09
2023-01-07T20:01:15.323Z,100306.94
2023-01-07T20:03:42.527Z,100296.84
2023-01-07T20:06:14.881Z,100304.72
2023-01-07T20:08:41.928Z,100295.97
2023-01-07T20:11:09.146Z,100293.22
2023-01-07T20:13:39.107Z,100285.97
2023-01-07T20:16:11.171Z,100269.75
2023-01-07T20:18:41.938Z,100281.84
2023-01-07T20:21:10.044Z,100281.50
2023-01-07T20:23:41.119Z,100277.03
2023-01-07T20:26:16.060Z,100264.34
2023-01-07T20:28:43.812Z,100274.47
2023-01-07T20:31:13.601Z,100275.03
2023-01-07T20:33:41.330Z,100268.19
2023-01-07T20:36:10.920Z,100262.88
2023-01-07T20:38:37.946Z,100262.16
2023-01-07T20:41:13.126Z,100253.78
2023-01-07T20:43:39.970Z,100250.03
2023-01-07T20:46:08.880Z,100253.69
2023-01-07T20:48:38.898Z,100242.50
2023-01-07T20:51:09.502Z,100234.75
2023-01-07T20:53:37.314Z,100226.66
2023-01-07T20:56:05.335Z,100221.38
2023-01-07T20:58:34.311Z,100226.19
2023-01-07T21:01:07.580Z,100217.31
2023-01-07T21:03:37.888Z,100212.66
2023-01-07T21:06:05.205Z,100210.72
2023-01-07T21:08:35.331Z,100202.38
2023-01-07T21:11:02.437Z,100201.84
2023-01-07T21:13:29.391Z,100200.44
2023-01-07T21:16:02.622Z,100195.06
2023-01-07T21:18:33.923Z,100196.69
2023-01-07T21:21:04.151Z,100184.22
2023-01-07T21:23:31.124Z,100182.53
2023-01-07T21:25:58.048Z,100178.72
2023-01-07T21:28:25.917Z,100182.81
2023-01-07T21:30:52.778Z,100169.94
2023-01-07T21:33:20.069Z,100164.94
2023-01-07T21:35:46.620Z,100164.78
2023-01-07T21:38:15.172Z,100157.94
2023-01-07T21:40:41.915Z,100156.94
2023-01-07T21:43:08.605Z,100163.72
2023-01-07T21:45:36.556Z,100157.78
2023-01-07T21:48:03.442Z,100161.84
2023-01-07T21:50:30.172Z,100170.19
2023-01-07T21:52:57.777Z,100181.31
2023-01-07T21:55:24.645Z,100174.16
2023-01-07T21:57:51.475Z,100172.28
2023-01-07T22:00:18.968Z,100169.78
2023-01-07T22:02:46.126Z,100165.56
2023-01-07T22:05:15.273Z,100169.06
2023-01-07T22:07:41.952Z,100159.13
2023-01-07T22:10:09.926Z,100164.81
2023-01-07T22:12:37.965Z,100162.66
2023-01-07T22:15:05.068Z,100178.44
2023-01-07T22:17:31.982Z,100178.66
2023-01-07T22:19:59.085Z,100176.41
2023-01-07T22:22:25.817Z,100171.09
2023-01-07T22:24:52.421Z,100166.56
2023-01-07T22:27:19.084Z,100166.41
2023-01-07T22:29:45.896Z,100154.66
2023-01-07T22:32:12.896Z,100148.94
2023-01-07T22:34:39.851Z,100142.28
2023-01-07T22:37:12.423Z,100124.38
2023-01-07T22:39:44.194Z,100127.16
2023-01-07T22:42:22.609Z,100121.09
2023-01-07T22:44:57.741Z,100116.44
2023-01-07T22:47:29.217Z,100119.66
2023-01-07T22:49:56.863Z,100111.63
2023-01-07T22:52:23.533Z,100118.56
2023-01-07T22:54:50.498Z,100118.38
2023-01-07T22:57:17.395Z,100116.94
2023-01-07T22:59:46.959Z,100118.59
2023-01-07T23:02:14.274Z,100119.66
2023-01-07T23:04:41.000Z,100126.66
2023-01-07T23:07:07.597Z,100128.03
2023-01-07T23:09:34.453Z,100131.13
2023-01-07T23:12:01.511Z,100124.28
2023-01-07T23:14:29.721Z,100106.75
2023-01-07T23:16:56.907Z,100091.59
2023-01-07T23:19:23.638Z,100103.06
2023-01-07T23:21:54.598Z,100098.69
2023-01-07T23:24:22.843Z,100097.84
2023-01-07T23:26:51.843Z,100093.53
2023-01-07T23:29:20.061Z,100086.44
2023-01-07T23:31:47.657Z,100083.56
2023-01-07T23:34:14.806Z,100077.16
2023-01-07T23:36:41.796Z,100068.56
2023-01-07T23:39:11.482Z,100077.00
2023-01-07T23:41:38.496Z,100084.75
2023-01-07T23:44:05.313Z,100078.69
2023-01-07T23:46:33.008Z,100088.91
2023-01-07T23:49:03.516Z,100086.06
2023-01-07T23:51:30.307Z,100080.06
2023-01-07T23:53:57.323Z,100069.44
2023-01-07T23:56:26.959Z,100082.28
2023-01-07T23:58:54.214Z,100070.44
